sensor_id;sensor_type;location;lat;lon;timestamp;P1;durP1;ratioP1;P2;durP2;ratioP2
51260;SDS011;61705;46.228;24.812;2023-06-22T00:00:12;15.77;;;11.63;;
51260;SDS011;61705;46.228;24.812;2023-06-22T00:02:42;16.27;;;12.85;;
51260;SDS011;61705;46.228;24.812;2023-06-22T00:05:09;19.42;;;13.88;;
51260;SDS011;61705;46.228;24.812;2023-06-22T00:07:36;17.83;;;12.20;;
51260;SDS011;61705;46.228;24.812;2023-06-22T00:10:07;20.23;;;12.80;;
51260;SDS011;61705;46.228;24.812;2023-06-22T00:12:34;16.17;;;12.32;;
51260;SDS011;61705;46.228;24.812;2023-06-22T00:15:03;15.43;;;13.02;;
51260;SDS011;61705;46.228;24.812;2023-06-22T00:17:30;20.95;;;13.23;;
51260;SDS011;61705;46.228;24.812;2023-06-22T00:19:57;16.27;;;12.75;;
51260;SDS011;61705;46.228;24.812;2023-06-22T00:22:28;16.75;;;12.32;;
51260;SDS011;61705;46.228;24.812;2023-06-22T00:24:55;16.50;;;12.45;;
51260;SDS011;61705;46.228;24.812;2023-06-22T00:27:23;16.35;;;13.88;;
51260;SDS011;61705;46.228;24.812;2023-06-22T00:29:50;14.90;;;12.85;;
51260;SDS011;61705;46.228;24.812;2023-06-22T00:32:16;28.05;;;17.15;;
51260;SDS011;61705;46.228;24.812;2023-06-22T00:34:43;18.88;;;14.50;;
51260;SDS011;61705;46.228;24.812;2023-06-22T00:37:12;26.65;;;16.85;;
51260;SDS011;61705;46.228;24.812;2023-06-22T00:39:39;18.45;;;13.52;;
51260;SDS011;61705;46.228;24.812;2023-06-22T00:42:08;16.92;;;13.18;;
51260;SDS011;61705;46.228;24.812;2023-06-22T00:44:37;17.92;;;13.85;;
51260;SDS011;61705;46.228;24.812;2023-06-22T00:47:03;18.38;;;12.98;;
51260;SDS011;61705;46.228;24.812;2023-06-22T00:49:38;18.58;;;12.85;;
51260;SDS011;61705;46.228;24.812;2023-06-22T00:52:06;18.38;;;13.90;;
51260;SDS011;61705;46.228;24.812;2023-06-22T00:54:42;22.75;;;14.35;;
51260;SDS011;61705;46.228;24.812;2023-06-22T00:57:16;17.98;;;13.90;;
51260;SDS011;61705;46.228;24.812;2023-06-22T00:59:45;23.67;;;13.95;;
51260;SDS011;61705;46.228;24.812;2023-06-22T01:02:12;18.08;;;13.52;;
51260;SDS011;61705;46.228;24.812;2023-06-22T01:04:43;16.90;;;13.15;;
51260;SDS011;61705;46.228;24.812;2023-06-22T01:07:11;18.15;;;12.90;;
51260;SDS011;61705;46.228;24.812;2023-06-22T01:12:28;16.80;;;13.32;;
51260;SDS011;61705;46.228;24.812;2023-06-22T01:15:05;18.92;;;12.93;;
51260;SDS011;61705;46.228;24.812;2023-06-22T01:17:33;19.75;;;13.45;;
51260;SDS011;61705;46.228;24.812;2023-06-22T01:20:02;20.70;;;14.30;;
51260;SDS011;61705;46.228;24.812;2023-06-22T01:22:33;19.10;;;12.85;;
51260;SDS011;61705;46.228;24.812;2023-06-22T01:25:20;15.55;;;12.57;;
51260;SDS011;61705;46.228;24.812;2023-06-22T01:28:00;22.60;;;14.05;;
51260;SDS011;61705;46.228;24.812;2023-06-22T01:30:46;16.02;;;12.85;;
51260;SDS011;61705;46.228;24.812;2023-06-22T01:33:27;17.27;;;13.63;;
51260;SDS011;61705;46.228;24.812;2023-06-22T01:35:54;17.08;;;12.38;;
51260;SDS011;61705;46.228;24.812;2023-06-22T01:38:20;15.93;;;14.05;;
51260;SDS011;61705;46.228;24.812;2023-06-22T01:40:48;19.23;;;15.00;;
51260;SDS011;61705;46.228;24.812;2023-06-22T01:43:16;19.67;;;14.02;;
51260;SDS011;61705;46.228;24.812;2023-06-22T01:45:45;26.92;;;14.63;;
51260;SDS011;61705;46.228;24.812;2023-06-22T01:48:11;17.05;;;13.90;;
51260;SDS011;61705;46.228;24.812;2023-06-22T01:50:41;16.20;;;13.35;;
51260;SDS011;61705;46.228;24.812;2023-06-22T01:53:08;20.00;;;13.60;;
51260;SDS011;61705;46.228;24.812;2023-06-22T01:55:34;17.80;;;13.80;;
51260;SDS011;61705;46.228;24.812;2023-06-22T01:58:01;17.45;;;12.80;;
51260;SDS011;61705;46.228;24.812;2023-06-22T02:00:30;16.23;;;13.43;;
51260;SDS011;61705;46.228;24.812;2023-06-22T02:03:01;21.63;;;14.60;;
51260;SDS011;61705;46.228;24.812;2023-06-22T02:05:42;18.70;;;13.60;;
51260;SDS011;61705;46.228;24.812;2023-06-22T02:08:20;19.40;;;13.30;;
51260;SDS011;61705;46.228;24.812;2023-06-22T02:10:57;22.40;;;15.30;;
51260;SDS011;61705;46.228;24.812;2023-06-22T02:18:24;20.35;;;15.60;;
51260;SDS011;61705;46.228;24.812;2023-06-22T02:20:57;17.00;;;14.10;;
51260;SDS011;61705;46.228;24.812;2023-06-22T02:23:24;20.50;;;15.70;;
51260;SDS011;61705;46.228;24.812;2023-06-22T02:25:50;16.43;;;14.53;;
51260;SDS011;61705;46.228;24.812;2023-06-22T02:28:19;32.15;;;15.50;;
51260;SDS011;61705;46.228;24.812;2023-06-22T02:30:49;24.40;;;15.68;;
51260;SDS011;61705;46.228;24.812;2023-06-22T02:33:15;29.70;;;15.93;;
51260;SDS011;61705;46.228;24.812;2023-06-22T02:35:43;21.92;;;15.25;;
51260;SDS011;61705;46.228;24.812;2023-06-22T02:38:13;20.60;;;14.52;;
51260;SDS011;61705;46.228;24.812;2023-06-22T02:40:43;22.58;;;14.57;;
51260;SDS011;61705;46.228;24.812;2023-06-22T02:43:09;26.10;;;15.27;;
51260;SDS011;61705;46.228;24.812;2023-06-22T02:45:37;26.10;;;14.40;;
51260;SDS011;61705;46.228;24.812;2023-06-22T02:48:05;19.35;;;14.20;;
51260;SDS011;61705;46.228;24.812;2023-06-22T02:50:35;21.60;;;14.48;;
51260;SDS011;61705;46.228;24.812;2023-06-22T02:53:05;22.05;;;15.32;;
51260;SDS011;61705;46.228;24.812;2023-06-22T02:55:36;22.88;;;14.27;;
51260;SDS011;61705;46.228;24.812;2023-06-22T02:58:05;20.38;;;13.85;;
51260;SDS011;61705;46.228;24.812;2023-06-22T03:00:37;25.58;;;14.98;;
51260;SDS011;61705;46.228;24.812;2023-06-22T03:03:05;21.98;;;14.05;;
51260;SDS011;61705;46.228;24.812;2023-06-22T03:05:32;18.13;;;13.98;;
51260;SDS011;61705;46.228;24.812;2023-06-22T03:08:01;21.20;;;14.88;;
51260;SDS011;61705;46.228;24.812;2023-06-22T03:10:28;19.08;;;14.38;;
51260;SDS011;61705;46.228;24.812;2023-06-22T03:12:55;24.00;;;13.82;;
51260;SDS011;61705;46.228;24.812;2023-06-22T03:15:22;17.73;;;13.75;;
51260;SDS011;61705;46.228;24.812;2023-06-22T03:17:52;21.50;;;13.48;;
51260;SDS011;61705;46.228;24.812;2023-06-22T03:20:21;25.50;;;14.60;;
51260;SDS011;61705;46.228;24.812;2023-06-22T03:22:48;17.52;;;13.20;;
51260;SDS011;61705;46.228;24.812;2023-06-22T03:25:22;15.77;;;12.60;;
51260;SDS011;61705;46.228;24.812;2023-06-22T03:27:49;21.75;;;13.30;;
51260;SDS011;61705;46.228;24.812;2023-06-22T03:30:16;17.60;;;12.90;;
51260;SDS011;61705;46.228;24.812;2023-06-22T03:32:46;17.70;;;12.85;;
51260;SDS011;61705;46.228;24.812;2023-06-22T03:35:15;21.08;;;13.80;;
51260;SDS011;61705;46.228;24.812;2023-06-22T03:37:42;17.52;;;13.43;;
51260;SDS011;61705;46.228;24.812;2023-06-22T03:40:08;19.05;;;12.77;;
51260;SDS011;61705;46.228;24.812;2023-06-22T03:42:38;19.08;;;13.30;;
51260;SDS011;61705;46.228;24.812;2023-06-22T03:45:07;18.75;;;13.82;;
51260;SDS011;61705;46.228;24.812;2023-06-22T03:47:34;20.83;;;13.07;;
51260;SDS011;61705;46.228;24.812;2023-06-22T03:50:04;16.58;;;12.38;;
51260;SDS011;61705;46.228;24.812;2023-06-22T03:52:32;21.52;;;13.15;;
51260;SDS011;61705;46.228;24.812;2023-06-22T03:54:59;18.75;;;12.70;;
51260;SDS011;61705;46.228;24.812;2023-06-22T03:57:25;19.10;;;13.60;;
51260;SDS011;61705;46.228;24.812;2023-06-22T03:59:57;23.25;;;12.77;;
51260;SDS011;61705;46.228;24.812;2023-06-22T04:02:24;18.40;;;12.90;;
51260;SDS011;61705;46.228;24.812;2023-06-22T04:04:51;16.60;;;12.77;;
51260;SDS011;61705;46.228;24.812;2023-06-22T04:07:18;18.77;;;13.15;;
51260;SDS011;61705;46.228;24.812;2023-06-22T04:09:45;17.40;;;12.43;;
51260;SDS011;61705;46.228;24.812;2023-06-22T04:12:14;17.77;;;12.27;;
51260;SDS011;61705;46.228;24.812;2023-06-22T04:14:41;18.02;;;12.10;;
51260;SDS011;61705;46.228;24.812;2023-06-22T04:17:07;17.38;;;12.80;;
51260;SDS011;61705;46.228;24.812;2023-06-22T04:19:41;16.73;;;11.82;;
51260;SDS011;61705;46.228;24.812;2023-06-22T04:22:07;18.25;;;12.10;;
51260;SDS011;61705;46.228;24.812;2023-06-22T04:24:34;21.38;;;12.50;;
51260;SDS011;61705;46.228;24.812;2023-06-22T04:27:01;24.52;;;12.95;;
51260;SDS011;61705;46.228;24.812;2023-06-22T04:29:29;19.25;;;12.55;;
51260;SDS011;61705;46.228;24.812;2023-06-22T04:31:56;25.27;;;12.50;;
51260;SDS011;61705;46.228;24.812;2023-06-22T04:34:29;16.98;;;12.93;;
51260;SDS011;61705;46.228;24.812;2023-06-22T04:36:59;20.88;;;13.68;;
51260;SDS011;61705;46.228;24.812;2023-06-22T04:39:26;22.60;;;13.00;;
51260;SDS011;61705;46.228;24.812;2023-06-22T04:41:53;17.30;;;12.07;;
51260;SDS011;61705;46.228;24.812;2023-06-22T04:44:28;19.42;;;13.15;;
51260;SDS011;61705;46.228;24.812;2023-06-22T04:46:56;22.33;;;15.18;;
51260;SDS011;61705;46.228;24.812;2023-06-22T04:49:28;19.33;;;12.77;;
51260;SDS011;61705;46.228;24.812;2023-06-22T04:51:59;29.25;;;13.27;;
51260;SDS011;61705;46.228;24.812;2023-06-22T04:54:28;19.92;;;12.93;;
51260;SDS011;61705;46.228;24.812;2023-06-22T04:56:55;21.17;;;12.50;;
51260;SDS011;61705;46.228;24.812;2023-06-22T04:59:24;19.90;;;14.13;;
51260;SDS011;61705;46.228;24.812;2023-06-22T05:02:00;21.48;;;13.10;;
51260;SDS011;61705;46.228;24.812;2023-06-22T05:04:29;27.38;;;13.55;;
51260;SDS011;61705;46.228;24.812;2023-06-22T05:07:00;18.50;;;12.93;;
51260;SDS011;61705;46.228;24.812;2023-06-22T05:09:26;20.75;;;12.57;;
51260;SDS011;61705;46.228;24.812;2023-06-22T05:11:53;19.05;;;13.07;;
51260;SDS011;61705;46.228;24.812;2023-06-22T05:14:20;18.10;;;12.20;;
51260;SDS011;61705;46.228;24.812;2023-06-22T05:16:50;19.10;;;12.85;;
51260;SDS011;61705;46.228;24.812;2023-06-22T05:19:24;22.58;;;13.07;;
51260;SDS011;61705;46.228;24.812;2023-06-22T05:21:51;16.75;;;12.15;;
51260;SDS011;61705;46.228;24.812;2023-06-22T05:24:18;17.48;;;12.20;;
51260;SDS011;61705;46.228;24.812;2023-06-22T05:26:44;15.05;;;12.10;;
51260;SDS011;61705;46.228;24.812;2023-06-22T05:29:11;18.25;;;12.70;;
51260;SDS011;61705;46.228;24.812;2023-06-22T05:31:40;16.27;;;12.18;;
51260;SDS011;61705;46.228;24.812;2023-06-22T05:34:08;16.45;;;12.57;;
51260;SDS011;61705;46.228;24.812;2023-06-22T05:36:35;20.55;;;13.95;;
51260;SDS011;61705;46.228;24.812;2023-06-22T05:39:10;17.90;;;12.07;;
51260;SDS011;61705;46.228;24.812;2023-06-22T05:41:41;16.88;;;12.40;;
51260;SDS011;61705;46.228;24.812;2023-06-22T05:44:09;21.10;;;12.95;;
51260;SDS011;61705;46.228;24.812;2023-06-22T05:46:42;16.30;;;11.77;;
51260;SDS011;61705;46.228;24.812;2023-06-22T05:49:14;18.75;;;11.73;;
51260;SDS011;61705;46.228;24.812;2023-06-22T05:51:44;24.95;;;12.40;;
51260;SDS011;61705;46.228;24.812;2023-06-22T05:54:14;23.27;;;13.90;;
51260;SDS011;61705;46.228;24.812;2023-06-22T05:56:42;20.45;;;12.93;;
51260;SDS011;61705;46.228;24.812;2023-06-22T05:59:11;16.52;;;11.88;;
51260;SDS011;61705;46.228;24.812;2023-06-22T06:01:38;17.88;;;12.15;;
51260;SDS011;61705;46.228;24.812;2023-06-22T06:04:08;16.95;;;11.95;;
51260;SDS011;61705;46.228;24.812;2023-06-22T06:06:34;19.90;;;14.60;;
51260;SDS011;61705;46.228;24.812;2023-06-22T06:09:06;21.75;;;14.18;;
51260;SDS011;61705;46.228;24.812;2023-06-22T06:11:34;19.35;;;12.15;;
51260;SDS011;61705;46.228;24.812;2023-06-22T06:14:08;17.98;;;12.35;;
51260;SDS011;61705;46.228;24.812;2023-06-22T06:16:35;16.00;;;12.32;;
51260;SDS011;61705;46.228;24.812;2023-06-22T06:19:01;18.45;;;11.75;;
51260;SDS011;61705;46.228;24.812;2023-06-22T06:21:28;16.95;;;12.23;;
51260;SDS011;61705;46.228;24.812;2023-06-22T06:23:56;17.13;;;12.48;;
51260;SDS011;61705;46.228;24.812;2023-06-22T06:26:28;15.15;;;11.75;;
51260;SDS011;61705;46.228;24.812;2023-06-22T06:29:01;18.65;;;11.57;;
51260;SDS011;61705;46.228;24.812;2023-06-22T06:31:28;17.23;;;11.55;;
51260;SDS011;61705;46.228;24.812;2023-06-22T06:33:55;21.77;;;12.68;;
51260;SDS011;61705;46.228;24.812;2023-06-22T06:36:22;16.63;;;12.52;;
51260;SDS011;61705;46.228;24.812;2023-06-22T06:38:48;21.73;;;12.90;;
51260;SDS011;61705;46.228;24.812;2023-06-22T06:41:15;19.27;;;12.18;;
51260;SDS011;61705;46.228;24.812;2023-06-22T06:43:42;17.90;;;12.65;;
51260;SDS011;61705;46.228;24.812;2023-06-22T06:46:09;20.08;;;13.23;;
51260;SDS011;61705;46.228;24.812;2023-06-22T06:48:36;17.13;;;13.70;;
51260;SDS011;61705;46.228;24.812;2023-06-22T06:51:03;19.92;;;12.45;;
51260;SDS011;61705;46.228;24.812;2023-06-22T06:53:30;19.50;;;12.38;;
51260;SDS011;61705;46.228;24.812;2023-06-22T06:55:57;17.65;;;12.50;;
51260;SDS011;61705;46.228;24.812;2023-06-22T06:58:24;20.77;;;13.73;;
51260;SDS011;61705;46.228;24.812;2023-06-22T07:00:51;38.60;;;26.02;;
51260;SDS011;61705;46.228;24.812;2023-06-22T07:03:17;29.88;;;20.38;;
51260;SDS011;61705;46.228;24.812;2023-06-22T07:05:51;24.90;;;14.18;;
51260;SDS011;61705;46.228;24.812;2023-06-22T07:08:18;18.42;;;12.13;;
51260;SDS011;61705;46.228;24.812;2023-06-22T07:10:44;19.70;;;11.82;;
51260;SDS011;61705;46.228;24.812;2023-06-22T07:13:11;15.38;;;11.40;;
51260;SDS011;61705;46.228;24.812;2023-06-22T07:15:38;17.20;;;12.90;;
51260;SDS011;61705;46.228;24.812;2023-06-22T07:18:04;21.17;;;11.82;;
51260;SDS011;61705;46.228;24.812;2023-06-22T07:20:31;16.05;;;10.50;;
51260;SDS011;61705;46.228;24.812;2023-06-22T07:22:59;16.35;;;11.65;;
51260;SDS011;61705;46.228;24.812;2023-06-22T07:25:25;17.65;;;11.55;;
51260;SDS011;61705;46.228;24.812;2023-06-22T07:28:05;17.08;;;11.95;;
51260;SDS011;61705;46.228;24.812;2023-06-22T07:30:33;17.15;;;11.55;;
51260;SDS011;61705;46.228;24.812;2023-06-22T07:33:01;14.65;;;10.88;;
51260;SDS011;61705;46.228;24.812;2023-06-22T07:35:30;15.02;;;11.05;;
51260;SDS011;61705;46.228;24.812;2023-06-22T07:37:57;14.70;;;11.65;;
51260;SDS011;61705;46.228;24.812;2023-06-22T07:40:24;19.83;;;12.00;;
51260;SDS011;61705;46.228;24.812;2023-06-22T07:42:51;17.95;;;12.77;;
51260;SDS011;61705;46.228;24.812;2023-06-22T07:45:19;17.08;;;12.38;;
51260;SDS011;61705;46.228;24.812;2023-06-22T07:47:46;13.32;;;11.55;;
51260;SDS011;61705;46.228;24.812;2023-06-22T07:50:13;16.35;;;12.50;;
51260;SDS011;61705;46.228;24.812;2023-06-22T07:52:39;16.23;;;11.88;;
51260;SDS011;61705;46.228;24.812;2023-06-22T07:55:06;18.55;;;12.38;;
51260;SDS011;61705;46.228;24.812;2023-06-22T07:57:33;16.15;;;12.85;;
51260;SDS011;61705;46.228;24.812;2023-06-22T08:00:04;18.08;;;11.40;;
51260;SDS011;61705;46.228;24.812;2023-06-22T08:02:43;15.98;;;12.13;;
51260;SDS011;61705;46.228;24.812;2023-06-22T08:05:13;15.07;;;11.60;;
51260;SDS011;61705;46.228;24.812;2023-06-22T08:07:47;17.33;;;11.90;;
51260;SDS011;61705;46.228;24.812;2023-06-22T08:10:16;14.73;;;11.93;;
51260;SDS011;61705;46.228;24.812;2023-06-22T08:12:43;21.58;;;14.27;;
51260;SDS011;61705;46.228;24.812;2023-06-22T08:15:10;17.70;;;11.80;;
51260;SDS011;61705;46.228;24.812;2023-06-22T08:17:37;23.30;;;15.50;;
51260;SDS011;61705;46.228;24.812;2023-06-22T08:20:07;17.45;;;12.88;;
51260;SDS011;61705;46.228;24.812;2023-06-22T08:22:41;14.85;;;12.05;;
51260;SDS011;61705;46.228;24.812;2023-06-22T08:25:09;15.02;;;11.75;;
51260;SDS011;61705;46.228;24.812;2023-06-22T08:27:36;14.23;;;12.05;;
51260;SDS011;61705;46.228;24.812;2023-06-22T08:30:03;15.60;;;12.07;;
51260;SDS011;61705;46.228;24.812;2023-06-22T08:32:31;13.50;;;11.30;;
51260;SDS011;61705;46.228;24.812;2023-06-22T08:34:59;14.85;;;12.00;;
51260;SDS011;61705;46.228;24.812;2023-06-22T08:37:26;16.65;;;12.52;;
51260;SDS011;61705;46.228;24.812;2023-06-22T08:40:01;16.83;;;11.43;;
51260;SDS011;61705;46.228;24.812;2023-06-22T08:42:37;16.98;;;12.35;;
51260;SDS011;61705;46.228;24.812;2023-06-22T08:45:06;22.42;;;12.65;;
51260;SDS011;61705;46.228;24.812;2023-06-22T08:47:34;17.23;;;12.40;;
51260;SDS011;61705;46.228;24.812;2023-06-22T08:50:01;17.52;;;12.98;;
51260;SDS011;61705;46.228;24.812;2023-06-22T08:52:29;21.25;;;12.70;;
51260;SDS011;61705;46.228;24.812;2023-06-22T08:54:56;18.23;;;13.15;;
51260;SDS011;61705;46.228;24.812;2023-06-22T08:57:24;16.38;;;12.40;;
51260;SDS011;61705;46.228;24.812;2023-06-22T08:59:51;16.52;;;12.60;;
51260;SDS011;61705;46.228;24.812;2023-06-22T09:02:19;29.58;;;18.98;;
51260;SDS011;61705;46.228;24.812;2023-06-22T09:04:46;17.85;;;12.95;;
51260;SDS011;61705;46.228;24.812;2023-06-22T09:07:13;16.10;;;12.30;;
51260;SDS011;61705;46.228;24.812;2023-06-22T09:09:40;18.35;;;12.70;;
51260;SDS011;61705;46.228;24.812;2023-06-22T09:12:06;17.40;;;13.60;;
51260;SDS011;61705;46.228;24.812;2023-06-22T09:14:34;13.65;;;11.95;;
51260;SDS011;61705;46.228;24.812;2023-06-22T09:17:02;15.68;;;11.80;;
51260;SDS011;61705;46.228;24.812;2023-06-22T09:19:29;15.45;;;11.32;;
51260;SDS011;61705;46.228;24.812;2023-06-22T09:21:56;12.68;;;10.80;;
51260;SDS011;61705;46.228;24.812;2023-06-22T09:24:22;13.95;;;11.95;;
51260;SDS011;61705;46.228;24.812;2023-06-22T09:26:49;14.35;;;11.57;;
51260;SDS011;61705;46.228;24.812;2023-06-22T09:29:18;11.98;;;10.35;;
51260;SDS011;61705;46.228;24.812;2023-06-22T09:31:45;14.75;;;11.93;;
51260;SDS011;61705;46.228;24.812;2023-06-22T09:34:12;12.60;;;10.88;;
51260;SDS011;61705;46.228;24.812;2023-06-22T09:36:38;15.10;;;11.68;;
51260;SDS011;61705;46.228;24.812;2023-06-22T09:39:07;13.07;;;10.63;;
51260;SDS011;61705;46.228;24.812;2023-06-22T09:41:33;12.02;;;10.73;;
51260;SDS011;61705;46.228;24.812;2023-06-22T09:44:00;12.10;;;10.75;;
51260;SDS011;61705;46.228;24.812;2023-06-22T09:46:27;13.05;;;10.68;;
51260;SDS011;61705;46.228;24.812;2023-06-22T09:48:55;13.80;;;12.27;;
51260;SDS011;61705;46.228;24.812;2023-06-22T09:51:22;12.25;;;11.05;;
51260;SDS011;61705;46.228;24.812;2023-06-22T09:53:50;16.60;;;11.30;;
51260;SDS011;61705;46.228;24.812;2023-06-22T09:56:17;14.20;;;11.57;;
51260;SDS011;61705;46.228;24.812;2023-06-22T09:58:44;12.48;;;10.60;;
51260;SDS011;61705;46.228;24.812;2023-06-22T10:01:13;15.50;;;11.15;;
51260;SDS011;61705;46.228;24.812;2023-06-22T10:03:43;19.02;;;15.18;;
51260;SDS011;61705;46.228;24.812;2023-06-22T10:06:16;12.23;;;10.90;;
51260;SDS011;61705;46.228;24.812;2023-06-22T10:08:42;15.55;;;10.75;;
51260;SDS011;61705;46.228;24.812;2023-06-22T10:11:09;15.52;;;11.82;;
51260;SDS011;61705;46.228;24.812;2023-06-22T10:13:36;12.40;;;11.10;;
51260;SDS011;61705;46.228;24.812;2023-06-22T10:16:03;15.63;;;11.27;;
51260;SDS011;61705;46.228;24.812;2023-06-22T10:18:31;12.40;;;11.10;;
51260;SDS011;61705;46.228;24.812;2023-06-22T10:20:58;14.95;;;13.43;;
51260;SDS011;61705;46.228;24.812;2023-06-22T10:23:25;15.25;;;11.98;;
51260;SDS011;61705;46.228;24.812;2023-06-22T10:25:52;12.57;;;11.20;;
51260;SDS011;61705;46.228;24.812;2023-06-22T10:28:18;16.35;;;14.32;;
51260;SDS011;61705;46.228;24.812;2023-06-22T10:30:45;22.58;;;18.58;;
51260;SDS011;61705;46.228;24.812;2023-06-22T10:33:12;13.52;;;11.05;;
51260;SDS011;61705;46.228;24.812;2023-06-22T10:35:39;12.98;;;11.32;;
51260;SDS011;61705;46.228;24.812;2023-06-22T10:38:05;12.57;;;11.27;;
51260;SDS011;61705;46.228;24.812;2023-06-22T10:40:32;13.15;;;10.95;;
51260;SDS011;61705;46.228;24.812;2023-06-22T10:42:59;14.25;;;11.00;;
51260;SDS011;61705;46.228;24.812;2023-06-22T10:45:26;12.90;;;11.38;;
51260;SDS011;61705;46.228;24.812;2023-06-22T10:47:55;12.02;;;10.35;;
51260;SDS011;61705;46.228;24.812;2023-06-22T10:50:21;13.25;;;11.20;;
51260;SDS011;61705;46.228;24.812;2023-06-22T10:52:50;15.13;;;12.05;;
51260;SDS011;61705;46.228;24.812;2023-06-22T10:55:17;15.57;;;12.13;;
51260;SDS011;61705;46.228;24.812;2023-06-22T10:57:44;11.63;;;10.48;;
51260;SDS011;61705;46.228;24.812;2023-06-22T11:00:14;14.90;;;10.95;;
51260;SDS011;61705;46.228;24.812;2023-06-22T11:02:42;13.20;;;11.07;;
51260;SDS011;61705;46.228;24.812;2023-06-22T11:05:09;15.95;;;11.85;;
51260;SDS011;61705;46.228;24.812;2023-06-22T11:07:37;12.02;;;10.68;;
51260;SDS011;61705;46.228;24.812;2023-06-22T11:10:04;12.85;;;11.20;;
51260;SDS011;61705;46.228;24.812;2023-06-22T11:12:31;19.98;;;12.20;;
51260;SDS011;61705;46.228;24.812;2023-06-22T11:14:58;13.27;;;10.85;;
51260;SDS011;61705;46.228;24.812;2023-06-22T11:17:25;21.45;;;12.57;;
51260;SDS011;61705;46.228;24.812;2023-06-22T11:19:52;14.13;;;10.77;;
51260;SDS011;61705;46.228;24.812;2023-06-22T11:22:19;16.70;;;11.90;;
51260;SDS011;61705;46.228;24.812;2023-06-22T11:24:45;16.67;;;11.00;;
51260;SDS011;61705;46.228;24.812;2023-06-22T11:27:12;11.60;;;10.40;;
51260;SDS011;61705;46.228;24.812;2023-06-22T11:29:39;17.00;;;12.32;;
51260;SDS011;61705;46.228;24.812;2023-06-22T11:32:07;13.90;;;9.73;;
51260;SDS011;61705;46.228;24.812;2023-06-22T11:34:36;13.32;;;10.48;;
51260;SDS011;61705;46.228;24.812;2023-06-22T11:37:02;12.23;;;10.93;;
51260;SDS011;61705;46.228;24.812;2023-06-22T11:39:29;12.18;;;10.15;;
51260;SDS011;61705;46.228;24.812;2023-06-22T11:42:08;11.65;;;8.93;;
51260;SDS011;61705;46.228;24.812;2023-06-22T11:44:35;10.70;;;8.25;;
51260;SDS011;61705;46.228;24.812;2023-06-22T11:47:02;11.25;;;8.70;;
51260;SDS011;61705;46.228;24.812;2023-06-22T11:49:30;10.15;;;8.38;;
51260;SDS011;61705;46.228;24.812;2023-06-22T11:51:57;13.95;;;11.57;;
51260;SDS011;61705;46.228;24.812;2023-06-22T11:54:24;13.38;;;8.70;;
51260;SDS011;61705;46.228;24.812;2023-06-22T11:56:51;11.77;;;8.93;;
51260;SDS011;61705;46.228;24.812;2023-06-22T11:59:17;10.60;;;9.50;;
51260;SDS011;61705;46.228;24.812;2023-06-22T12:01:45;14.27;;;9.85;;
51260;SDS011;61705;46.228;24.812;2023-06-22T12:04:12;16.65;;;12.30;;
51260;SDS011;61705;46.228;24.812;2023-06-22T12:06:39;13.50;;;10.52;;
51260;SDS011;61705;46.228;24.812;2023-06-22T12:09:08;12.27;;;10.98;;
51260;SDS011;61705;46.228;24.812;2023-06-22T12:11:35;12.70;;;10.93;;
51260;SDS011;61705;46.228;24.812;2023-06-22T12:14:01;15.75;;;11.48;;
51260;SDS011;61705;46.228;24.812;2023-06-22T12:16:28;11.50;;;10.02;;
51260;SDS011;61705;46.228;24.812;2023-06-22T12:18:55;16.83;;;11.13;;
51260;SDS011;61705;46.228;24.812;2023-06-22T12:21:22;13.30;;;9.35;;
51260;SDS011;61705;46.228;24.812;2023-06-22T12:26:16;16.38;;;9.93;;
51260;SDS011;61705;46.228;24.812;2023-06-22T12:28:43;13.48;;;11.35;;
51260;SDS011;61705;46.228;24.812;2023-06-22T12:31:09;15.65;;;10.93;;
51260;SDS011;61705;46.228;24.812;2023-06-22T12:33:36;13.55;;;10.55;;
51260;SDS011;61705;46.228;24.812;2023-06-22T12:36:03;14.23;;;10.98;;
51260;SDS011;61705;46.228;24.812;2023-06-22T12:38:31;12.32;;;9.68;;
51260;SDS011;61705;46.228;24.812;2023-06-22T12:40:58;18.60;;;12.40;;
51260;SDS011;61705;46.228;24.812;2023-06-22T12:43:24;12.50;;;10.05;;
51260;SDS011;61705;46.228;24.812;2023-06-22T12:45:51;13.32;;;10.55;;
51260;SDS011;61705;46.228;24.812;2023-06-22T12:48:23;14.50;;;10.95;;
51260;SDS011;61705;46.228;24.812;2023-06-22T12:50:51;22.08;;;18.13;;
51260;SDS011;61705;46.228;24.812;2023-06-22T12:53:20;28.08;;;21.90;;
51260;SDS011;61705;46.228;24.812;2023-06-22T12:55:48;17.55;;;11.07;;
51260;SDS011;61705;46.228;24.812;2023-06-22T12:58:15;14.82;;;11.13;;
51260;SDS011;61705;46.228;24.812;2023-06-22T13:00:43;23.25;;;11.52;;
51260;SDS011;61705;46.228;24.812;2023-06-22T13:03:10;17.73;;;10.90;;
51260;SDS011;61705;46.228;24.812;2023-06-22T13:05:37;17.38;;;11.15;;
51260;SDS011;61705;46.228;24.812;2023-06-22T13:08:04;12.32;;;10.82;;
51260;SDS011;61705;46.228;24.812;2023-06-22T13:10:31;16.95;;;11.07;;
51260;SDS011;61705;46.228;24.812;2023-06-22T13:12:58;15.15;;;9.63;;
51260;SDS011;61705;46.228;24.812;2023-06-22T13:15:30;13.65;;;10.55;;
51260;SDS011;61705;46.228;24.812;2023-06-22T13:17:57;16.85;;;10.40;;
51260;SDS011;61705;46.228;24.812;2023-06-22T13:20:24;22.15;;;10.90;;
51260;SDS011;61705;46.228;24.812;2023-06-22T13:22:50;16.75;;;9.77;;
51260;SDS011;61705;46.228;24.812;2023-06-22T13:25:17;14.50;;;10.13;;
51260;SDS011;61705;46.228;24.812;2023-06-22T13:27:46;14.85;;;11.30;;
51260;SDS011;61705;46.228;24.812;2023-06-22T13:30:13;11.65;;;9.57;;
51260;SDS011;61705;46.228;24.812;2023-06-22T13:32:40;16.90;;;9.38;;
51260;SDS011;61705;46.228;24.812;2023-06-22T13:35:11;11.98;;;9.82;;
51260;SDS011;61705;46.228;24.812;2023-06-22T13:37:39;13.05;;;9.52;;
51260;SDS011;61705;46.228;24.812;2023-06-22T13:40:08;12.88;;;11.48;;
51260;SDS011;61705;46.228;24.812;2023-06-22T13:42:35;35.25;;;10.05;;
51260;SDS011;61705;46.228;24.812;2023-06-22T13:45:02;13.85;;;9.10;;
51260;SDS011;61705;46.228;24.812;2023-06-22T13:47:30;17.13;;;10.43;;
51260;SDS011;61705;46.228;24.812;2023-06-22T13:50:00;14.10;;;9.57;;
51260;SDS011;61705;46.228;24.812;2023-06-22T13:52:27;10.38;;;8.05;;
51260;SDS011;61705;46.228;24.812;2023-06-22T13:54:54;13.88;;;8.55;;
51260;SDS011;61705;46.228;24.812;2023-06-22T13:57:21;15.75;;;8.77;;
51260;SDS011;61705;46.228;24.812;2023-06-22T13:59:47;12.25;;;8.15;;
51260;SDS011;61705;46.228;24.812;2023-06-22T14:02:14;8.82;;;6.75;;
51260;SDS011;61705;46.228;24.812;2023-06-22T14:04:42;14.13;;;7.72;;
51260;SDS011;61705;46.228;24.812;2023-06-22T14:07:09;14.00;;;7.20;;
51260;SDS011;61705;46.228;24.812;2023-06-22T14:09:36;9.63;;;6.72;;
51260;SDS011;61705;46.228;24.812;2023-06-22T14:12:03;8.40;;;5.22;;
51260;SDS011;61705;46.228;24.812;2023-06-22T14:14:32;25.10;;;9.10;;
51260;SDS011;61705;46.228;24.812;2023-06-22T14:17:00;21.00;;;9.47;;
51260;SDS011;61705;46.228;24.812;2023-06-22T14:19:27;19.58;;;11.93;;
51260;SDS011;61705;46.228;24.812;2023-06-22T14:21:54;16.73;;;12.52;;
51260;SDS011;61705;46.228;24.812;2023-06-22T14:24:20;15.93;;;11.90;;
51260;SDS011;61705;46.228;24.812;2023-06-22T14:26:51;11.55;;;8.25;;